Time;durP1;ratioP1;P1;durP2;ratioP2;P2;SDS_P1;SDS_P2;PMS_P1;PMS_P2;Temp;Humidity;BMP_temperature;BMP_pressure;BME280_temperature;BME280_humidity;BME280_pressure;Samples;Min_cycle;Max_cycle;Signal;HPM_P1;HPM_P2
2022/11/26 00:02:25;;;;;;;37.97;12.63;;;6.70;99.90;;;-144.05;83.79;125687.94;4977910;28;20026;-77
2022/11/26 00:04:55;;;;;;;33.67;13.07;;;6.60;99.90;;;-144.05;84.15;125687.94;4977815;28;20386;-78
2022/11/26 00:07:28;;;;;;;38.50;13.88;;;6.60;99.90;;;-144.05;83.94;125687.94;4996218;28;20063;-78
2022/11/26 00:09:57;;;;;;;41.72;13.38;;;6.60;99.90;;;-144.05;84.11;125687.94;4994719;28;20030;-77
2022/11/26 00:12:31;;;;;;;35.15;14.13;;;6.60;99.90;;;-144.05;84.14;125687.94;4994831;28;20038;-77
2022/11/26 00:15:13;;;;;;;37.88;13.77;;;6.60;99.90;;;-144.05;84.32;125687.94;4993306;28;20042;-77
2022/11/26 00:17:39;;;;;;;43.05;14.02;;;6.60;99.90;;;-144.05;84.50;125687.94;4994230;28;20100;-77
2022/11/26 00:20:06;;;;;;;43.42;14.43;;;6.70;99.90;;;-144.05;84.24;125687.94;4977079;28;20031;-77
2022/11/26 00:22:44;;;;;;;40.58;14.35;;;6.70;99.90;;;-144.05;83.72;125687.94;4994657;28;20109;-78
2022/11/26 00:25:43;;;;;;;34.72;13.60;;;6.60;99.90;;;-144.05;83.81;125687.94;4994553;28;20038;-78
2022/11/26 00:28:33;;;;;;;35.70;14.65;;;6.60;99.90;;;-144.05;84.38;125687.94;4994706;28;20375;-78
2022/11/26 00:31:11;;;;;;;37.97;14.10;;;6.50;99.90;;;-144.05;84.07;125687.94;4994259;28;20449;-78
2022/11/26 00:33:37;;;;;;;39.83;15.25;;;6.50;99.90;;;-144.05;84.77;125687.94;4994532;28;20034;-78
2022/11/26 00:36:16;;;;;;;46.10;16.50;;;6.50;99.90;;;-144.05;84.49;125687.94;4994333;28;20034;-78
2022/11/26 00:38:46;;;;;;;40.05;13.73;;;6.60;99.90;;;-144.05;84.30;125687.94;4993775;28;20026;-76
2022/11/26 00:41:22;;;;;;;37.90;14.25;;;6.50;99.90;;;-144.05;84.37;125687.94;4977114;28;20030;-77
2022/11/26 00:43:49;;;;;;;39.60;14.82;;;6.60;99.90;;;-144.05;84.31;125687.94;4995164;28;20117;-77
2022/11/26 00:46:20;;;;;;;47.10;15.13;;;6.50;99.90;;;-144.05;84.86;125687.94;4994534;28;20451;-77
2022/11/26 00:48:46;;;;;;;41.83;15.32;;;6.50;99.90;;;-144.05;84.46;125687.94;4994086;28;20371;-78
2022/11/26 00:51:32;;;;;;;43.50;14.68;;;6.50;99.90;;;-144.05;84.41;125687.94;4997328;28;20033;-77
2022/11/26 00:54:02;;;;;;;39.40;14.35;;;6.50;99.90;;;-144.05;84.83;125687.94;4993775;28;20034;-76
2022/11/26 00:56:30;;;;;;;39.83;15.02;;;6.40;99.90;;;-144.05;84.81;125687.94;4993717;28;20031;-77
2022/11/26 00:58:56;;;;;;;38.30;16.67;;;6.50;99.90;;;-144.05;84.82;125687.94;4993356;28;20070;-77
2022/11/26 01:01:27;;;;;;;35.08;13.15;;;6.50;99.90;;;-144.05;84.84;125687.94;4994049;28;20386;-77
2022/11/26 01:03:54;;;;;;;37.60;15.07;;;6.50;99.90;;;-144.05;84.27;125687.94;4994191;28;20034;-77
2022/11/26 01:06:35;;;;;;;45.90;17.10;;;6.40;99.90;;;-144.05;85.27;125687.94;4993678;28;20038;-77
2022/11/26 01:09:04;;;;;;;38.60;14.43;;;6.50;99.90;;;-144.05;84.99;125687.94;4977402;28;20033;-77
2022/11/26 01:11:31;;;;;;;45.35;14.88;;;6.50;99.90;;;-144.05;84.89;125687.94;4979148;28;20034;-77
2022/11/26 01:13:57;;;;;;;46.67;14.38;;;6.50;99.90;;;-144.05;85.04;125687.94;4992580;28;20030;-77
2022/11/26 01:16:35;;;;;;;43.63;14.80;;;6.60;99.90;;;-144.05;85.24;125687.94;4993757;28;20089;-78
2022/11/26 01:19:01;;;;;;;40.47;14.85;;;6.60;99.90;;;-144.05;85.20;125687.94;4993887;28;20120;-77
2022/11/26 01:21:30;;;;;;;48.45;15.40;;;6.60;99.90;;;-144.05;85.16;125687.94;4994141;28;20061;-77
2022/11/26 01:23:56;;;;;;;39.65;15.20;;;6.60;99.90;;;-144.05;85.12;125687.94;4976711;28;20058;-77
2022/11/26 01:26:31;;;;;;;46.47;16.13;;;6.70;99.90;;;-144.05;84.99;125687.94;4993044;28;20092;-78
2022/11/26 01:28:57;;;;;;;38.10;13.93;;;6.80;99.90;;;-144.05;84.89;125687.94;4997967;28;20053;-77
2022/11/26 01:31:27;;;;;;;37.40;15.15;;;6.80;99.90;;;-144.05;84.98;125687.94;4980313;28;20045;-76
2022/11/26 01:33:55;;;;;;;38.40;13.35;;;6.80;99.90;;;-144.05;84.71;125687.94;4977565;28;20512;-77
2022/11/26 01:36:36;;;;;;;36.45;13.57;;;6.80;99.90;;;-144.05;85.01;125687.94;4994719;28;20116;-78
2022/11/26 01:39:18;;;;;;;43.10;14.50;;;6.80;99.90;;;-144.05;84.72;125687.94;4994652;28;20069;-78
2022/11/26 01:42:42;;;;;;;33.20;13.75;;;6.80;99.90;;;-144.05;84.66;125687.94;4976844;28;20061;-77
2022/11/26 01:45:26;;;;;;;34.08;14.10;;;6.80;99.90;;;-144.05;84.61;125687.94;4896382;29;20036;-77
2022/11/26 01:47:52;;;;;;;35.92;13.55;;;6.80;99.90;;;-144.05;84.62;125687.94;4991299;28;20042;-78
2022/11/26 01:50:30;;;;;;;39.42;14.02;;;6.80;99.90;;;-144.05;84.96;125687.94;4995081;28;20037;-78
2022/11/26 01:53:17;;;;;;;46.05;14.75;;;6.80;99.90;;;-144.05;84.81;125687.94;4976886;28;20038;-77
2022/11/26 01:55:57;;;;;;;38.55;14.60;;;6.80;99.90;;;-144.05;84.91;125687.94;4996045;28;20602;-79
2022/11/26 01:58:35;;;;;;;39.03;14.05;;;6.80;99.90;;;-144.05;84.98;125687.94;4994094;28;20045;-79
2022/11/26 02:01:01;;;;;;;41.45;14.07;;;6.90;99.90;;;-144.05;84.76;125687.94;4976578;28;20405;-78
2022/11/26 02:03:37;;;;;;;47.42;15.45;;;7.00;99.90;;;-144.05;84.32;125687.94;4994580;28;20027;-79
2022/11/26 02:06:14;;;;;;;46.90;14.43;;;7.00;99.90;;;-144.05;84.44;125687.94;4994930;28;20038;-78
2022/11/26 02:08:42;;;;;;;34.53;13.15;;;7.00;99.90;;;-144.05;84.75;125687.94;4995897;28;20034;-79
2022/11/26 02:11:21;;;;;;;34.20;13.32;;;7.10;99.90;;;-144.05;84.41;125687.94;4997462;28;20034;-78
2022/11/26 02:13:54;;;;;;;47.80;14.93;;;7.10;99.90;;;-144.05;84.19;125687.94;4980308;28;20026;-78
2022/11/26 02:17:21;;;;;;;38.13;14.38;;;7.20;99.90;;;-144.05;83.85;125687.94;4998069;28;20031;-78
2022/11/26 02:20:37;;;;;;;39.30;13.63;;;7.20;99.90;;;-144.05;83.54;125687.94;4954875;28;20051;-76
2022/11/26 02:23:38;;;;;;;40.33;13.10;;;7.20;99.90;;;-144.05;83.76;125687.94;4996283;28;20038;-77
2022/11/26 02:26:44;;;;;;;37.33;13.20;;;7.20;99.90;;;-144.05;83.64;125687.94;4995982;28;20536;-77
2022/11/26 02:30:06;;;;;;;34.15;11.68;;;7.20;99.90;;;-144.05;83.54;125687.94;4999349;28;20034;-80
2022/11/26 02:33:13;;;;;;;29.23;11.82;;;7.10;99.90;;;-144.05;83.07;125687.94;4999649;28;20129;-77
2022/11/26 02:35:53;;;;;;;;;;;7.10;99.90;;;-144.05;82.71;125687.94;4999498;28;20367;-76
2022/11/26 02:38:31;;;;;;;34.55;12.45;;;7.00;99.90;;;-144.05;82.95;125687.94;4999326;28;19941;-78
2022/11/26 02:40:59;;;;;;;33.20;13.10;;;7.00;99.90;;;-144.05;82.88;125687.94;4999242;28;20031;-77
2022/11/26 02:43:27;;;;;;;38.42;14.48;;;7.00;99.90;;;-144.05;82.96;125687.94;4996274;28;20034;-77
2022/11/26 02:46:03;;;;;;;35.05;12.95;;;7.00;99.90;;;-144.05;82.73;125687.94;4997572;28;20101;-78
2022/11/26 02:48:39;;;;;;;37.20;13.23;;;7.00;99.90;;;-144.05;82.67;125687.94;4998965;28;20022;-78
2022/11/26 02:51:20;;;;;;;34.75;13.00;;;6.90;99.90;;;-144.05;82.64;125687.94;4997783;28;20033;-78
2022/11/26 02:53:49;;;;;;;31.52;14.05;;;7.00;99.90;;;-144.05;82.73;125687.94;4982395;28;20029;-78
2022/11/26 02:56:23;;;;;;;36.45;12.93;;;6.90;99.90;;;-144.05;82.42;125687.94;4999703;28;20022;-78
2022/11/26 02:58:53;;;;;;;42.35;14.07;;;6.90;99.90;;;-144.05;82.51;125687.94;4996503;28;20061;-78
2022/11/26 03:01:34;;;;;;;34.72;13.10;;;6.80;99.90;;;-144.05;82.81;125687.94;4997102;28;20030;-76
2022/11/26 03:04:10;;;;;;;35.67;13.98;;;6.70;99.90;;;-144.05;83.17;125687.94;4996265;28;20054;-78
2022/11/26 03:06:38;;;;;;;24.63;12.82;;;6.60;99.90;;;-144.05;82.67;125687.94;4996621;28;20030;-77
2022/11/26 03:09:06;;;;;;;37.67;13.90;;;6.50;99.90;;;-144.05;82.72;125687.94;4996386;28;20030;-77
2022/11/26 03:11:32;;;;;;;37.53;14.90;;;6.40;99.90;;;-144.05;83.54;125687.94;4994665;28;20112;-77
2022/11/26 03:13:58;;;;;;;46.65;17.52;;;6.30;99.90;;;-144.05;83.90;125687.94;4994620;28;20100;-77
2022/11/26 03:16:24;;;;;;;40.35;15.73;;;6.20;99.90;;;-144.05;84.33;125687.94;4992839;28;20034;-76
2022/11/26 03:18:50;;;;;;;42.90;17.10;;;6.20;99.90;;;-144.05;83.99;125687.94;4994133;28;20109;-75
2022/11/26 03:21:16;;;;;;;42.28;15.82;;;6.10;99.90;;;-144.05;83.50;125687.94;4993918;28;20105;-75
2022/11/26 03:23:42;;;;;;;35.67;16.40;;;6.10;99.90;;;-144.05;83.80;125687.94;4993949;28;20038;-77
2022/11/26 03:26:07;;;;;;;41.63;17.70;;;6.00;99.90;;;-144.05;83.92;125687.94;4976477;28;20062;-75
2022/11/26 03:28:34;;;;;;;47.40;17.00;;;6.00;99.90;;;-144.05;83.55;125687.94;4993773;28;20080;-78
2022/11/26 03:31:00;;;;;;;43.60;15.07;;;6.00;99.90;;;-144.05;83.71;125687.94;4994280;28;20038;-77
2022/11/26 03:33:26;;;;;;;41.92;16.63;;;5.90;99.90;;;-144.05;83.89;125687.94;4994225;28;20093;-78
2022/11/26 03:35:51;;;;;;;37.92;16.05;;;5.90;99.90;;;-144.05;83.89;125687.94;4993815;28;20030;-77
2022/11/26 03:38:17;;;;;;;45.33;16.73;;;5.90;99.90;;;-144.05;83.72;125687.94;4993909;28;20030;-78
2022/11/26 03:40:43;;;;;;;47.40;16.83;;;5.90;99.90;;;-144.05;83.55;125687.94;4994085;28;20031;-76
2022/11/26 03:43:09;;;;;;;39.47;17.00;;;5.80;99.90;;;-144.05;83.96;125687.94;4976796;28;20117;-76
2022/11/26 03:45:35;;;;;;;52.38;18.08;;;5.70;99.90;;;-144.05;85.02;125687.94;4976427;28;20052;-77
2022/11/26 03:48:01;;;;;;;34.22;16.50;;;5.70;99.90;;;-144.05;84.76;125687.94;4992600;28;20034;-77
2022/11/26 03:50:27;;;;;;;44.05;16.58;;;5.80;99.90;;;-144.05;84.87;125687.94;4994504;28;20031;-77
2022/11/26 03:52:52;;;;;;;41.20;16.17;;;5.70;99.90;;;-144.05;84.55;125687.94;4994012;28;20034;-78
2022/11/26 03:55:18;;;;;;;43.75;16.92;;;5.70;99.90;;;-144.05;84.81;125687.94;4993705;28;20564;-77
2022/11/26 03:57:44;;;;;;;45.03;16.20;;;5.70;99.90;;;-144.05;84.91;125687.94;4993721;28;20048;-78
2022/11/26 04:00:13;;;;;;;43.72;16.85;;;5.70;99.90;;;-144.05;84.99;125687.94;4994556;28;20069;-78
2022/11/26 04:02:38;;;;;;;49.67;17.50;;;5.70;99.90;;;-144.05;84.63;125687.94;4993912;28;20026;-78
2022/11/26 04:05:05;;;;;;;48.40;17.60;;;5.70;99.90;;;-144.05;85.04;125687.94;4993996;28;20433;-78
2022/11/26 04:07:31;;;;;;;41.10;14.30;;;5.70;99.90;;;-144.05;84.36;125687.94;4992485;28;20120;-77
2022/11/26 04:09:57;;;;;;;39.83;15.90;;;5.70;99.90;;;-144.05;84.79;125687.94;4993590;28;20034;-78
2022/11/26 04:12:23;;;;;;;40.50;15.07;;;5.70;99.90;;;-144.05;84.61;125687.94;4993617;28;20038;-77
2022/11/26 04:14:48;;;;;;;42.67;15.93;;;5.60;99.90;;;-144.05;84.89;125687.94;4993917;28;20038;-78
2022/11/26 04:17:14;;;;;;;45.47;15.50;;;5.70;99.90;;;-144.05;84.77;125687.94;5018400;23;20041;-82
2022/11/26 04:19:40;;;;;;;45.65;17.23;;;5.70;99.90;;;-144.05;85.08;125687.94;4997357;28;20355;-82
2022/11/26 04:22:06;;;;;;;39.30;14.40;;;5.70;99.90;;;-144.05;84.82;125687.94;5015190;28;20161;-82
2022/11/26 04:24:31;;;;;;;44.03;16.23;;;5.70;99.90;;;-144.05;84.39;125687.94;5015787;28;20108;-79
2022/11/26 04:26:57;;;;;;;37.60;14.60;;;5.70;99.90;;;-144.05;84.10;125687.94;5015423;28;20026;-81
2022/11/26 04:29:23;;;;;;;43.22;14.70;;;5.60;99.90;;;-144.05;84.19;125687.94;5014011;28;20037;-80
2022/11/26 04:31:49;;;;;;;47.15;17.55;;;5.50;99.90;;;-144.05;84.23;125687.94;5014948;28;20424;-79
2022/11/26 04:34:15;;;;;;;48.67;16.48;;;5.50;99.90;;;-144.05;84.20;125687.94;5015225;28;20092;-79
2022/11/26 04:36:41;;;;;;;42.72;15.02;;;5.50;99.90;;;-144.05;84.42;125687.94;5015600;28;20500;-81
2022/11/26 04:39:06;;;;;;;40.50;15.05;;;5.60;99.90;;;-144.05;84.48;125687.94;5015508;28;20041;-81
2022/11/26 04:41:32;;;;;;;44.53;16.58;;;5.60;99.90;;;-144.05;84.85;125687.94;5015985;28;20022;-78
2022/11/26 04:43:58;;;;;;;44.67;15.77;;;5.60;99.90;;;-144.05;84.91;125687.94;5016667;28;20068;-83
2022/11/26 04:46:24;;;;;;;47.10;17.58;;;5.70;99.90;;;-144.05;84.96;125687.94;5016439;28;20454;-80
2022/11/26 04:48:50;;;;;;;44.10;17.42;;;5.70;99.90;;;-144.05;84.45;125687.94;5014901;28;20145;-79
2022/11/26 04:51:16;;;;;;;42.17;16.02;;;5.70;99.90;;;-144.05;84.71;125687.94;5015838;28;20034;-78
2022/11/26 04:53:41;;;;;;;46.33;15.80;;;5.70;99.90;;;-144.05;84.70;125687.94;5015781;28;20108;-79
2022/11/26 04:56:07;;;;;;;43.70;15.55;;;5.80;99.90;;;-144.05;84.62;125687.94;5015658;28;20022;-80
2022/11/26 04:58:33;;;;;;;50.25;16.08;;;5.70;99.90;;;-144.05;84.48;125687.94;4997277;28;20400;-81
2022/11/26 05:00:59;;;;;;;48.08;18.08;;;5.70;99.90;;;-144.05;84.75;125687.94;5015151;28;20030;-80
2022/11/26 05:03:25;;;;;;;37.63;16.63;;;5.70;99.90;;;-144.05;84.57;125687.94;5013861;28;20037;-79
2022/11/26 05:05:51;;;;;;;45.47;16.77;;;5.70;99.90;;;-144.05;84.84;125687.94;5015199;28;20061;-80
2022/11/26 05:08:17;;;;;;;42.05;16.98;;;5.70;99.90;;;-144.05;84.68;125687.94;5020312;28;20073;-79
2022/11/26 05:10:42;;;;;;;42.90;16.90;;;5.70;99.90;;;-144.05;84.44;125687.94;5033894;28;20101;-81
2022/11/26 05:13:08;;;;;;;49.17;16.20;;;5.70;99.90;;;-144.05;84.44;125687.94;5019294;28;20030;-78
2022/11/26 05:15:34;;;;;;;52.78;16.38;;;5.60;99.90;;;-144.05;84.73;125687.94;5015027;28;20034;-79
2022/11/26 05:18:00;;;;;;;38.53;15.82;;;5.60;99.90;;;-144.05;84.57;125687.94;5014746;28;20069;-80
2022/11/26 05:20:26;;;;;;;51.70;16.85;;;5.70;99.90;;;-144.05;84.68;125687.94;5015719;28;20397;-79
2022/11/26 05:22:52;;;;;;;49.17;18.17;;;5.70;99.90;;;-144.05;84.40;125687.94;5015437;28;20034;-80
2022/11/26 05:25:18;;;;;;;42.38;17.90;;;5.70;99.90;;;-144.05;84.68;125687.94;4997462;28;20037;-79
2022/11/26 05:27:43;;;;;;;47.83;18.35;;;5.80;99.90;;;-144.05;85.16;125687.94;5015070;28;20105;-79
2022/11/26 05:30:11;;;;;;;44.58;17.48;;;5.80;99.90;;;-144.05;84.90;125687.94;5014579;28;20045;-79
2022/11/26 05:32:36;;;;;;;41.70;17.30;;;5.90;99.90;;;-144.05;84.27;125687.94;5014343;28;20436;-79
2022/11/26 05:35:04;;;;;;;48.88;16.67;;;5.90;99.90;;;-144.05;84.48;125687.94;5014321;28;20057;-79
2022/11/26 05:37:29;;;;;;;40.47;16.23;;;5.90;99.90;;;-144.05;84.21;125687.94;5014711;28;20034;-80
2022/11/26 05:39:55;;;;;;;39.67;16.60;;;5.90;99.90;;;-144.05;83.92;125687.94;5015232;28;20034;-80
2022/11/26 05:42:21;;;;;;;36.63;17.15;;;5.80;99.90;;;-144.05;84.77;125687.94;5014417;28;20069;-78
2022/11/26 05:44:47;;;;;;;46.95;17.30;;;5.80;99.90;;;-144.05;84.61;125687.94;5000399;28;20129;-78
2022/11/26 05:47:13;;;;;;;47.28;18.75;;;5.70;99.90;;;-144.05;84.56;125687.94;5018355;28;20033;-78
2022/11/26 05:49:39;;;;;;;50.72;17.63;;;5.80;99.90;;;-144.05;85.02;125687.94;5018471;28;20457;-79
2022/11/26 05:52:04;;;;;;;53.83;20.20;;;5.80;99.90;;;-144.05;85.28;125687.94;5018510;28;20073;-81
2022/11/26 05:54:30;;;;;;;61.20;18.95;;;5.80;99.90;;;-144.05;85.25;125687.94;5017769;28;20033;-80
2022/11/26 05:56:57;;;;;;;54.08;20.00;;;5.80;99.90;;;-144.05;84.94;125687.94;5018149;28;20030;-78
2022/11/26 05:59:23;;;;;;;52.28;17.77;;;5.80;99.90;;;-144.05;84.60;125687.94;5018692;28;20105;-79
2022/11/26 06:01:49;;;;;;;53.30;18.88;;;5.80;99.90;;;-144.05;85.06;125687.94;5019993;28;20417;-82
2022/11/26 06:04:15;;;;;;;50.95;19.90;;;5.80;99.90;;;-144.05;85.00;125687.94;5019655;28;20030;-81
2022/11/26 06:06:41;;;;;;;43.92;19.58;;;5.80;99.90;;;-144.05;84.54;125687.94;5019775;28;20059;-80
2022/11/26 06:09:07;;;;;;;49.83;18.50;;;5.80;99.90;;;-144.05;84.17;125687.94;5001212;28;20124;-81
2022/11/26 06:11:32;;;;;;;43.55;17.80;;;5.70;99.90;;;-144.05;84.09;125687.94;5001149;28;20402;-78
2022/11/26 06:13:58;;;;;;;49.28;17.33;;;5.70;99.90;;;-144.05;84.25;125687.94;5017970;28;20052;-80
2022/11/26 06:16:24;;;;;;;44.83;16.92;;;5.60;99.90;;;-144.05;84.18;125687.94;5018009;28;20123;-81
2022/11/26 06:18:50;;;;;;;50.58;18.65;;;5.50;99.90;;;-144.05;84.75;125687.94;5018427;28;20057;-78
2022/11/26 06:21:16;;;;;;;50.10;19.75;;;5.50;99.90;;;-144.05;84.86;125687.94;5018456;28;20064;-78
2022/11/26 06:23:42;;;;;;;55.10;19.50;;;5.50;99.90;;;-144.05;84.71;125687.94;5018444;28;20034;-79
2022/11/26 06:26:12;;;;;;;51.42;18.52;;;5.50;99.90;;;-144.05;84.92;125687.94;5019039;28;20029;-81
2022/11/26 06:28:39;;;;;;;55.35;17.90;;;5.50;99.90;;;-144.05;84.46;125687.94;5019070;28;20033;-80
2022/11/26 06:31:08;;;;;;;46.25;18.52;;;5.40;99.90;;;-144.05;84.43;125687.94;5018731;28;20038;-78
2022/11/26 06:33:36;;;;;;;52.13;19.83;;;5.40;99.90;;;-144.05;84.61;125687.94;5018880;28;20037;-79
2022/11/26 06:36:04;;;;;;;52.92;21.15;;;5.30;99.90;;;-144.05;85.42;125687.94;5018302;28;20029;-79
2022/11/26 06:38:31;;;;;;;50.30;20.65;;;5.40;99.90;;;-144.05;85.18;125687.94;5000252;28;20379;-81
2022/11/26 06:41:06;;;;;;;54.47;20.88;;;5.50;99.90;;;-144.05;85.31;125687.94;5017360;28;20114;-80
2022/11/26 06:43:34;;;;;;;55.72;22.05;;;5.50;99.90;;;-144.05;84.52;125687.94;5017519;28;20057;-81
2022/11/26 06:46:08;;;;;;;52.72;19.25;;;5.40;99.90;;;-144.05;84.48;125687.94;5018269;28;20551;-79
2022/11/26 06:48:37;;;;;;;53.47;20.20;;;5.30;99.90;;;-144.05;84.74;125687.94;5020425;28;20064;-80
2022/11/26 06:51:14;;;;;;;52.85;19.60;;;5.30;99.90;;;-144.05;85.24;125687.94;5018215;28;20033;-79
2022/11/26 06:53:40;;;;;;;49.28;19.95;;;5.20;99.90;;;-144.05;85.10;125687.94;5019277;28;20175;-80
2022/11/26 06:56:12;;;;;;;53.40;19.33;;;5.20;99.90;;;-144.05;85.07;125687.94;5001356;28;20029;-79
2022/11/26 06:58:38;;;;;;;62.33;20.42;;;5.30;99.90;;;-144.05;85.38;125687.94;5017622;28;20064;-80
2022/11/26 07:01:15;;;;;;;60.85;22.10;;;5.30;99.90;;;-144.05;85.91;125687.94;5018579;28;20440;-78
2022/11/26 07:03:41;;;;;;;56.20;21.77;;;5.30;99.90;;;-144.05;85.64;125687.94;5017896;28;20041;-80
2022/11/26 07:06:24;;;;;;;60.47;22.38;;;5.30;99.90;;;-144.05;85.35;125687.94;5020065;28;20037;-79
2022/11/26 07:08:52;;;;;;;61.78;21.40;;;5.30;99.90;;;-144.05;85.27;125687.94;5019081;28;20041;-78
2022/11/26 07:11:20;;;;;;;68.45;22.38;;;5.30;99.90;;;-144.05;85.12;125687.94;5017431;28;20486;-80
2022/11/26 07:13:46;;;;;;;71.30;22.38;;;5.30;99.90;;;-144.05;85.06;125687.94;5017593;28;20026;-78
2022/11/26 07:16:12;;;;;;;59.47;22.25;;;5.30;99.90;;;-144.05;84.57;125687.94;5019014;28;20029;-79
2022/11/26 07:18:39;;;;;;;57.38;21.02;;;5.20;99.90;;;-144.05;84.39;125687.94;5020373;28;20045;-81
2022/11/26 07:21:09;;;;;;;48.05;18.98;;;5.10;99.90;;;-144.05;84.38;125687.94;5003081;28;20030;-79
2022/11/26 07:23:35;;;;;;;53.55;19.70;;;5.10;99.90;;;-144.05;84.52;125687.94;5019920;28;20076;-80
2022/11/26 07:26:04;;;;;;;56.97;22.23;;;5.10;99.90;;;-144.05;84.90;125687.94;5020478;28;20393;-79
2022/11/26 07:28:32;;;;;;;61.17;20.70;;;5.10;99.90;;;-144.05;85.01;125687.94;5021743;28;20034;-78
2022/11/26 07:31:11;;;;;;;57.55;20.33;;;5.20;99.90;;;-144.05;85.17;125687.94;5002538;28;20088;-79
2022/11/26 07:33:38;;;;;;;60.10;21.00;;;5.20;99.90;;;-144.05;85.06;125687.94;5020302;28;20485;-80
2022/11/26 07:36:13;;;;;;;45.58;18.73;;;5.30;99.90;;;-144.05;84.58;125687.94;5019943;28;20036;-80
2022/11/26 07:38:39;;;;;;;50.90;20.40;;;5.30;99.90;;;-144.05;85.36;125687.94;5019926;28;20489;-80
2022/11/26 07:41:11;;;;;;;56.10;21.02;;;5.30;99.90;;;-144.05;86.14;125687.94;5019439;28;20065;-80
2022/11/26 07:43:39;;;;;;;65.15;23.02;;;5.40;99.90;;;-144.05;85.56;125687.94;5019412;28;20030;-78
2022/11/26 07:46:11;;;;;;;54.75;20.55;;;5.60;99.90;;;-144.05;84.91;125687.94;5001921;28;20034;-79
2022/11/26 07:48:39;;;;;;;52.45;19.88;;;5.60;99.90;;;-144.05;84.56;125687.94;5025069;28;20068;-79
2022/11/26 07:51:14;;;;;;;55.35;20.83;;;5.70;99.90;;;-144.05;84.47;125687.94;5023639;28;20517;-78
2022/11/26 07:53:40;;;;;;;57.55;19.83;;;5.60;99.90;;;-144.05;84.51;125687.94;5031242;28;20033;-79
2022/11/26 07:56:06;;;;;;;59.08;21.88;;;5.70;99.90;;;-144.05;84.39;125687.94;5023139;28;20041;-80
2022/11/26 07:58:34;;;;;;;57.05;21.00;;;5.80;99.90;;;-144.05;84.14;125687.94;5020376;28;20389;-79
2022/11/26 08:01:17;;;;;;;57.65;19.35;;;5.90;99.90;;;-144.05;83.81;125687.94;5022821;28;20529;-82
2022/11/26 08:03:47;;;;;;;49.22;19.77;;;6.00;99.90;;;-144.05;83.84;125687.94;5023864;28;20037;-80
2022/11/26 08:06:22;;;;;;;54.70;21.10;;;6.20;99.90;;;-144.05;83.81;125687.94;5023763;28;20034;-79
2022/11/26 08:08:48;;;;;;;58.55;20.95;;;6.30;99.90;;;-144.05;83.55;125687.94;5007114;28;20129;-79
2022/11/26 08:11:22;;;;;;;50.22;18.55;;;6.40;99.90;;;-144.05;82.91;125687.94;5023950;28;20099;-81
2022/11/26 08:14:06;;;;;;;46.22;19.05;;;6.60;99.90;;;-144.05;82.66;125687.94;5023664;28;20022;-80
2022/11/26 08:16:32;;;;;;;46.20;18.60;;;6.70;99.90;;;-144.05;81.97;125687.94;5007395;28;20121;-78
2022/11/26 08:19:05;;;;;;;48.00;18.25;;;6.90;99.90;;;-144.05;81.52;125687.94;5024143;28;20060;-79
2022/11/26 08:21:32;;;;;;;41.67;16.30;;;7.00;99.90;;;-144.05;81.31;125687.94;5023141;28;20060;-79
2022/11/26 08:24:02;;;;;;;41.80;16.20;;;7.20;99.90;;;-144.05;80.43;125687.94;5002635;28;20046;-79
2022/11/26 08:26:28;;;;;;;37.40;15.52;;;7.20;99.90;;;-144.05;79.82;125687.94;5017702;28;20030;-79
2022/11/26 08:28:54;;;;;;;38.95;15.25;;;7.20;99.90;;;-144.05;79.28;125687.94;5002869;28;20091;-79
2022/11/26 08:31:21;;;;;;;35.88;14.68;;;7.30;99.90;;;-144.05;78.82;125687.94;5017238;28;20026;-78
2022/11/26 08:33:47;;;;;;;38.83;13.68;;;7.20;99.90;;;-144.05;79.44;125687.94;5000687;28;20073;-79
2022/11/26 08:36:12;;;;;;;37.17;13.82;;;7.30;99.90;;;-144.05;79.37;125687.94;5017138;28;20032;-80
2022/11/26 08:38:42;;;;;;;34.30;14.52;;;7.40;99.90;;;-144.05;78.90;125687.94;5001450;28;20072;-79
2022/11/26 08:41:12;;;;;;;38.13;13.73;;;7.60;99.90;;;-144.05;78.42;125687.94;5017897;28;20122;-79
2022/11/26 08:43:40;;;;;;;37.53;14.52;;;7.70;99.90;;;-144.05;77.41;125687.94;5018632;28;20643;-81
2022/11/26 08:46:06;;;;;;;32.15;13.43;;;7.80;99.90;;;-144.05;77.43;125687.94;5003240;28;20029;-79
2022/11/26 08:48:33;;;;;;;36.65;13.23;;;7.90;99.90;;;-144.05;77.03;125687.94;5018384;28;20030;-79
2022/11/26 08:51:05;;;;;;;33.78;11.73;;;8.10;99.90;;;-144.05;76.48;125687.94;5017853;28;20042;-82
2022/11/26 08:53:34;;;;;;;29.90;11.88;;;8.20;99.90;;;-144.05;75.60;125687.94;5020334;28;20040;-80
2022/11/26 08:56:12;;;;;;;33.63;11.80;;;8.30;99.90;;;-144.05;75.75;125687.94;5019578;28;20033;-81
2022/11/26 08:58:43;;;;;;;29.58;10.23;;;8.40;99.90;;;-144.05;75.45;125687.94;5017764;28;20489;-79
2022/11/26 09:01:17;;;;;;;32.22;10.88;;;8.50;99.90;;;-144.05;75.13;125687.94;5023826;28;20026;-82
2022/11/26 09:03:47;;;;;;;29.05;10.70;;;8.70;99.90;;;-144.05;74.76;125687.94;5020062;28;20032;-80
2022/11/26 09:06:13;;;;;;;28.17;10.25;;;8.80;99.90;;;-144.05;74.05;125687.94;5000423;28;20030;-81
2022/11/26 09:11:27;;;;;;;26.58;7.97;;;8.90;99.90;;;-144.05;73.91;125687.94;5016709;28;20073;-78
2022/11/26 09:13:53;;;;;;;31.30;10.05;;;8.80;99.90;;;-144.05;73.68;125687.94;5023990;28;20037;-81
2022/11/26 09:16:21;;;;;;;22.92;9.68;;;8.90;99.90;;;-144.05;73.42;125687.94;5014167;28;20125;-77
2022/11/26 09:18:47;;;;;;;38.78;10.05;;;8.90;99.90;;;-144.05;73.56;125687.94;5018912;28;20034;-79
2022/11/26 09:21:13;;;;;;;24.95;8.68;;;9.00;99.90;;;-144.05;73.38;125687.94;5025203;28;20044;-77
2022/11/26 09:23:39;;;;;;;24.98;8.93;;;9.00;99.90;;;-144.05;73.67;125687.94;5018796;28;20057;-78
2022/11/26 09:26:05;;;;;;;19.90;7.80;;;9.00;99.90;;;-144.05;73.12;125687.94;5019611;28;20044;-78
2022/11/26 09:28:31;;;;;;;24.75;7.82;;;9.10;99.90;;;-144.05;72.38;125687.94;5022065;28;20504;-78
2022/11/26 09:30:59;;;;;;;21.60;8.57;;;9.10;99.90;;;-144.05;72.83;125687.94;5019069;28;20045;-80
2022/11/26 09:33:27;;;;;;;20.63;7.78;;;9.10;99.90;;;-144.05;72.72;125687.94;5022075;28;20029;-80
2022/11/26 09:35:53;;;;;;;26.30;8.52;;;9.10;99.90;;;-144.05;72.56;125687.94;5002767;28;20026;-80
2022/11/26 09:38:20;;;;;;;22.75;8.52;;;9.20;99.90;;;-144.05;72.10;125687.94;5019400;28;20452;-78
2022/11/26 09:41:18;;;;;;;19.10;7.97;;;9.30;99.90;;;-144.05;71.32;125687.94;5020696;28;20026;-79
2022/11/26 09:44:31;;;;;;;22.80;7.55;;;9.40;99.90;;;-144.05;72.04;125687.94;5023368;28;20076;-77
2022/11/26 09:47:26;;;;;;;24.63;7.18;;;9.30;99.90;;;-144.05;72.13;125687.94;5003293;28;20125;-78
2022/11/26 09:50:10;;;;;;;21.92;8.27;;;9.40;99.90;;;-144.05;71.23;125687.94;5019753;28;20092;-78
2022/11/26 09:53:14;;;;;;;18.00;7.10;;;9.50;99.90;;;-144.05;71.01;125687.94;5022905;28;20040;-79
2022/11/26 09:55:53;;;;;;;24.73;7.40;;;9.70;99.90;;;-144.05;69.97;125687.94;5021307;28;20080;-79
2022/11/26 09:58:37;;;;;;;25.63;8.38;;;9.80;99.90;;;-144.05;70.22;125687.94;5003129;28;20141;-80
2022/11/26 10:01:06;;;;;;;29.05;7.60;;;10.00;99.90;;;-144.05;68.84;125687.94;5020518;28;20053;-80
2022/11/26 10:03:36;;;;;;;25.20;7.35;;;10.20;99.90;;;-144.05;68.94;125687.94;5004326;28;20113;-80
2022/11/26 10:06:39;;;;;;;18.55;5.80;;;10.20;99.90;;;-144.05;68.75;125687.94;5022911;28;20414;-79
2022/11/26 10:10:18;;;;;;;16.90;5.47;;;10.30;99.90;;;-144.05;68.91;125687.94;5021554;28;20026;-77
2022/11/26 10:13:17;;;;;;;19.27;5.57;;;10.10;99.90;;;-144.05;69.75;125687.94;4960487;29;20115;-80
2022/11/26 10:16:37;;;;;;;20.23;5.75;;;10.10;99.90;;;-144.05;69.13;125687.94;5003447;28;20415;-80
2022/11/26 10:19:30;;;;;;;13.52;4.35;;;10.00;99.90;;;-144.05;69.16;125687.94;5018631;23;20072;-75